createdAt,value
2017-08-21T01:09:52.615Z,12.20
2017-08-21T01:12:20.094Z,12.10
2017-08-21T01:14:47.700Z,12.10
2017-08-21T01:17:15.128Z,12.00
2017-08-21T01:19:42.563Z,11.90
2017-08-21T01:22:10.003Z,11.90
2017-08-21T01:24:38.254Z,11.90
2017-08-21T01:27:05.695Z,11.90
2017-08-21T01:29:33.182Z,11.90
2017-08-21T01:32:00.701Z,12.00
2017-08-21T01:34:28.221Z,12.00
2017-08-21T01:36:55.727Z,12.00
2017-08-21T01:39:34.007Z,12.10
2017-08-21T01:42:01.586Z,12.10
2017-08-21T01:44:31.600Z,12.30
2017-08-21T01:46:59.440Z,12.40
2017-08-21T01:49:26.949Z,12.50
2017-08-21T01:52:04.575Z,12.60
2017-08-21T01:54:32.154Z,12.70
2017-08-21T02:02:51.875Z,12.70
2017-08-21T02:05:31.517Z,12.80
2017-08-21T02:11:01.240Z,12.80
2017-08-21T02:13:29.442Z,12.70
2017-08-21T02:15:56.882Z,12.70
2017-08-21T02:18:24.325Z,12.80
2017-08-21T02:20:51.794Z,12.80
2017-08-21T02:23:19.227Z,12.80
2017-08-21T02:25:46.666Z,12.80
2017-08-21T02:28:14.134Z,12.90
2017-08-21T02:30:41.572Z,13.00
2017-08-21T02:33:09.007Z,13.00
2017-08-21T02:35:36.456Z,13.00
2017-08-21T02:38:15.707Z,13.00
2017-08-21T02:40:43.181Z,13.00
2017-08-21T02:43:10.623Z,13.00
2017-08-21T02:45:38.067Z,12.90
2017-08-21T02:48:06.275Z,13.00
2017-08-21T02:50:33.727Z,12.90
2017-08-21T02:53:01.943Z,12.90
2017-08-21T02:55:29.383Z,13.00
2017-08-21T02:57:56.919Z,13.00
2017-08-21T03:00:24.391Z,13.00
2017-08-21T03:02:51.834Z,13.00
2017-08-21T03:05:19.302Z,13.00
2017-08-21T03:07:46.747Z,13.10
2017-08-21T03:10:14.231Z,13.20
2017-08-21T03:12:41.680Z,13.20
2017-08-21T03:15:09.124Z,13.10
2017-08-21T03:17:36.612Z,13.00
2017-08-21T03:20:04.075Z,13.00
2017-08-21T03:22:31.516Z,12.90
2017-08-21T03:24:59.020Z,12.90
2017-08-21T03:27:26.463Z,12.90
2017-08-21T03:29:54.671Z,12.90
2017-08-21T03:32:22.111Z,12.80
2017-08-21T03:34:49.546Z,12.80
2017-08-21T03:37:17.139Z,12.70
2017-08-21T03:39:44.620Z,12.70
2017-08-21T03:42:12.831Z,12.70
2017-08-21T03:44:40.315Z,12.70
2017-08-21T03:47:07.776Z,12.70
2017-08-21T03:49:35.401Z,12.80
2017-08-21T03:52:02.878Z,12.80
2017-08-21T03:54:30.318Z,12.80
2017-08-21T03:56:57.764Z,12.80
2017-08-21T03:59:25.204Z,12.80
2017-08-21T04:01:52.636Z,12.90
2017-08-21T04:04:20.074Z,12.90
2017-08-21T04:06:48.280Z,12.90
2017-08-21T04:09:15.714Z,12.90
2017-08-21T04:11:43.163Z,12.90
2017-08-21T04:14:10.619Z,12.90
2017-08-21T04:16:38.076Z,13.00
2017-08-21T04:19:05.527Z,13.00
2017-08-21T06:33:03.933Z,16.00
2017-08-21T06:38:16.864Z,16.70
2017-08-21T06:40:47.222Z,16.80
2017-08-21T06:43:14.917Z,16.90
2017-08-21T06:45:42.557Z,17.00
2017-08-21T06:48:10.049Z,17.10
2017-08-21T06:50:37.744Z,17.30
2017-08-21T06:53:05.596Z,17.50
2017-08-21T06:55:33.329Z,17.60
2017-08-21T06:58:10.898Z,17.70
2017-08-21T07:00:38.835Z,17.70
2017-08-21T07:03:06.498Z,17.60
2017-08-21T07:08:24.724Z,17.50
2017-08-21T07:13:49.474Z,17.20
2017-08-21T07:16:17.079Z,17.20
2017-08-21T07:18:46.449Z,17.20
2017-08-21T07:21:14.084Z,17.20
2017-08-21T07:23:42.106Z,17.30
2017-08-21T07:26:09.988Z,17.40
2017-08-21T07:31:15.191Z,17.80
2017-08-21T07:33:42.712Z,18.40
2017-08-21T07:36:10.279Z,19.10
2017-08-21T07:38:37.786Z,19.60
2017-08-21T07:41:05.352Z,19.90
2017-08-21T07:43:33.810Z,20.00
2017-08-21T07:46:04.910Z,19.90
2017-08-21T07:48:32.541Z,19.20
2017-08-21T07:51:00.321Z,19.20
2017-08-21T07:53:27.812Z,19.10
2017-08-21T07:55:55.597Z,18.80
2017-08-21T07:58:23.031Z,19.20
2017-08-21T08:00:50.582Z,19.50
2017-08-21T08:03:18.032Z,19.70
2017-08-21T08:05:45.492Z,19.90
2017-08-21T08:08:12.943Z,19.90
2017-08-21T08:10:40.410Z,20.00
2017-08-21T08:13:07.867Z,20.30
2017-08-21T08:15:35.360Z,20.50
2017-08-21T08:18:02.810Z,20.60
2017-08-21T08:20:30.279Z,20.70
2017-08-21T08:22:57.724Z,20.70
2017-08-21T08:25:25.172Z,20.50
2017-08-21T08:27:52.628Z,21.00
2017-08-21T08:30:20.083Z,21.20
2017-08-21T08:32:47.524Z,20.20
2017-08-21T08:35:14.979Z,19.70
2017-08-21T08:37:42.442Z,19.50
2017-08-21T08:40:09.900Z,19.30
2017-08-21T08:42:37.334Z,19.10
2017-08-21T08:45:04.803Z,18.80
2017-08-21T08:47:32.256Z,18.50
2017-08-21T08:49:59.707Z,18.60
2017-08-21T08:52:27.921Z,19.20
2017-08-21T08:54:55.363Z,19.10
2017-08-21T08:57:22.812Z,19.00
2017-08-21T08:59:50.262Z,19.20
2017-08-21T09:02:18.479Z,19.50
2017-08-21T09:04:45.932Z,19.40
2017-08-21T09:07:13.375Z,19.20
2017-08-21T09:09:40.823Z,18.60
2017-08-21T09:12:08.273Z,18.80
2017-08-21T09:14:35.726Z,18.70
2017-08-21T09:17:03.939Z,18.70
2017-08-21T09:19:31.387Z,18.70
2017-08-21T09:21:58.838Z,18.60
2017-08-21T09:24:26.276Z,18.60
2017-08-21T09:26:54.489Z,18.80
2017-08-21T09:29:21.937Z,18.80
2017-08-21T09:31:49.383Z,18.70
2017-08-21T09:34:16.822Z,18.90
2017-08-21T09:36:45.036Z,19.30
2017-08-21T09:39:12.480Z,19.30
2017-08-21T09:41:39.970Z,19.90
2017-08-21T09:44:07.399Z,20.30
2017-08-21T09:46:34.848Z,20.50
2017-08-21T09:49:02.299Z,20.70
2017-08-21T09:51:29.750Z,20.90
2017-08-21T09:53:57.963Z,20.70
2017-08-21T09:56:25.418Z,20.70
2017-08-21T09:58:52.868Z,20.40
2017-08-21T10:01:20.313Z,19.90
2017-08-21T10:03:47.771Z,19.90
2017-08-21T10:06:15.218Z,20.20
2017-08-21T10:08:42.671Z,20.10
2017-08-21T10:11:11.099Z,20.00
2017-08-21T10:17:22.702Z,20.00
2017-08-21T10:20:00.904Z,20.20
2017-08-21T10:22:32.567Z,20.40
2017-08-21T10:25:11.424Z,20.60
2017-08-21T10:27:41.863Z,20.20
2017-08-21T10:30:09.670Z,19.90
2017-08-21T10:32:37.138Z,20.10
2017-08-21T10:35:04.886Z,20.50
2017-08-21T10:37:32.674Z,21.00
2017-08-21T10:40:00.207Z,21.40
2017-08-21T10:42:27.905Z,21.60
2017-08-21T10:44:55.781Z,21.60
2017-08-21T10:47:23.494Z,21.80
2017-08-21T10:49:51.169Z,21.80
2017-08-21T10:52:18.627Z,21.70
2017-08-21T10:54:46.350Z,21.70
2017-08-21T10:57:14.730Z,21.50
2017-08-21T11:05:27.670Z,20.70
2017-08-21T11:07:56.099Z,20.30
2017-08-21T11:10:27.922Z,19.80
2017-08-21T11:12:55.653Z,19.60
2017-08-21T11:15:23.661Z,19.20
2017-08-21T11:17:51.294Z,19.00
2017-08-21T11:20:29.078Z,18.80
2017-08-21T11:22:56.505Z,19.10
2017-08-21T11:25:23.944Z,19.30
2017-08-21T11:27:51.387Z,19.40
2017-08-21T11:30:18.832Z,19.50
2017-08-21T11:32:46.266Z,19.60
2017-08-21T11:35:13.713Z,19.70
2017-08-21T11:37:41.160Z,19.40
2017-08-21T11:40:08.602Z,19.50
2017-08-21T11:42:36.048Z,20.00
2017-08-21T11:45:03.491Z,20.60
2017-08-21T11:47:30.932Z,21.10
2017-08-21T11:49:58.372Z,21.00
2017-08-21T11:52:25.816Z,20.60
2017-08-21T11:54:53.257Z,20.60
2017-08-21T11:57:20.763Z,20.70
2017-08-21T11:59:48.249Z,21.00
2017-08-21T12:02:15.693Z,21.20
2017-08-21T12:04:43.237Z,21.30
2017-08-21T12:07:11.023Z,21.30
2017-08-21T12:09:38.471Z,21.00
2017-08-21T12:12:06.028Z,21.10
2017-08-21T12:14:33.506Z,21.50
2017-08-21T12:17:00.952Z,21.70
2017-08-21T12:19:28.621Z,21.30
2017-08-21T12:21:57.091Z,20.80
2017-08-21T12:24:25.024Z,20.60
2017-08-21T12:27:07.634Z,20.00
2017-08-21T12:29:35.278Z,19.90
2017-08-21T12:34:42.568Z,20.10
2017-08-21T12:37:10.044Z,20.10
2017-08-21T12:39:37.677Z,20.30
2017-08-21T12:42:05.310Z,20.60
2017-08-21T12:44:33.444Z,21.00
2017-08-21T12:47:01.018Z,21.30
2017-08-21T12:49:28.466Z,21.40
2017-08-21T12:51:55.953Z,21.60
2017-08-21T12:54:23.371Z,21.80
2017-08-21T12:56:50.888Z,22.10
2017-08-21T12:59:18.318Z,21.70
2017-08-21T13:01:47.841Z,21.50
2017-08-21T13:04:15.459Z,21.50
2017-08-21T13:06:43.162Z,21.60
2017-08-21T13:12:11.759Z,21.30
2017-08-21T13:14:39.272Z,21.50
2017-08-21T13:17:06.984Z,21.50
2017-08-21T13:19:35.918Z,21.40
2017-08-21T13:22:04.179Z,21.30
2017-08-21T13:24:32.441Z,21.00
2017-08-21T13:27:10.072Z,21.10
2017-08-21T13:29:38.812Z,21.40
2017-08-21T13:32:07.959Z,21.40
2017-08-21T13:40:31.996Z,20.60
2017-08-21T13:43:12.412Z,20.30
2017-08-21T13:45:40.059Z,20.10
2017-08-21T13:51:08.291Z,20.30
2017-08-21T13:53:39.056Z,20.30
2017-08-21T13:56:06.781Z,20.30
2017-08-21T13:58:34.265Z,20.60
2017-08-21T14:01:01.935Z,20.80
2017-08-21T14:03:29.694Z,21.00
2017-08-21T14:05:57.176Z,21.20
2017-08-21T14:08:24.720Z,21.40
2017-08-21T14:10:52.238Z,21.70
2017-08-21T14:13:19.704Z,21.60
2017-08-21T14:15:47.215Z,21.80
2017-08-21T14:18:14.697Z,21.90
2017-08-21T14:20:42.196Z,21.80
2017-08-21T14:23:09.693Z,21.90
2017-08-21T14:25:37.175Z,21.30
2017-08-21T14:28:04.807Z,21.10
2017-08-21T14:30:32.330Z,20.90
2017-08-21T14:33:00.195Z,20.50
2017-08-21T14:35:28.892Z,20.40
2017-08-21T14:37:56.773Z,20.40
2017-08-21T14:40:24.855Z,20.40
2017-08-21T14:42:52.448Z,20.30
2017-08-21T14:45:20.009Z,20.30
2017-08-21T14:47:47.838Z,20.30
2017-08-21T14:50:15.443Z,20.40
2017-08-21T14:52:42.939Z,20.40
2017-08-21T14:55:11.062Z,20.40
2017-08-21T14:57:38.557Z,20.60
2017-08-21T15:00:12.408Z,20.40
2017-08-21T15:05:14.189Z,20.40
2017-08-21T15:07:59.006Z,20.50
2017-08-21T15:13:32.005Z,20.30
2017-08-21T15:18:44.393Z,20.30
2017-08-21T15:21:11.925Z,20.10
2017-08-21T15:23:39.445Z,20.10
2017-08-21T15:26:06.943Z,20.30
2017-08-21T15:28:34.398Z,20.40
2017-08-21T15:31:01.891Z,20.50
2017-08-21T15:33:29.523Z,20.50
2017-08-21T15:35:57.293Z,20.30
2017-08-21T15:41:23.982Z,20.00
2017-08-21T15:43:51.566Z,19.80
2017-08-21T15:46:19.205Z,19.70
2017-08-21T15:48:46.658Z,19.90
2017-08-21T15:51:14.185Z,20.00
2017-08-21T15:53:41.790Z,20.20
2017-08-21T15:56:09.483Z,20.20
2017-08-21T15:58:38.553Z,20.10
2017-08-21T16:01:18.157Z,19.90
2017-08-21T16:06:54.770Z,19.70
2017-08-21T16:15:06.400Z,19.30
2017-08-21T16:17:34.291Z,19.30
2017-08-21T16:20:01.843Z,19.30
2017-08-21T16:22:30.384Z,19.30
2017-08-21T16:24:57.997Z,19.40
2017-08-21T16:33:22.860Z,19.20
2017-08-21T16:35:51.807Z,19.20
2017-08-21T16:41:17.419Z,18.90
2017-08-21T16:43:46.161Z,19.00
2017-08-21T16:46:13.831Z,18.90
2017-08-21T16:48:43.296Z,18.90
2017-08-21T16:51:13.272Z,18.90
2017-08-21T16:53:59.832Z,18.90
2017-08-21T16:59:19.576Z,18.80
2017-08-21T17:04:52.529Z,18.70
2017-08-21T17:07:25.098Z,18.70
2017-08-21T17:10:12.922Z,18.70
2017-08-21T18:03:50.856Z,17.00
2017-08-21T18:06:23.238Z,16.90
2017-08-21T18:24:35.315Z,16.90
2017-08-21T18:27:02.789Z,16.30
2017-08-21T18:29:30.397Z,16.20
2017-08-21T18:31:57.919Z,16.00
2017-08-21T18:34:47.282Z,16.00
2017-08-21T18:37:20.773Z,15.90
2017-08-21T18:40:06.738Z,15.80
2017-08-21T19:29:47.440Z,14.00
2017-08-21T19:32:17.403Z,13.90
2017-08-21T19:34:44.826Z,13.80
2017-08-21T19:37:12.271Z,13.70
2017-08-21T19:39:39.731Z,13.70
2017-08-21T19:42:07.172Z,13.60
2017-08-21T19:44:34.612Z,13.50
2017-08-21T19:47:02.066Z,13.50
2017-08-21T19:49:29.506Z,13.40
2017-08-21T19:51:56.943Z,13.30
2017-08-21T19:54:24.423Z,13.30
2017-08-21T19:56:51.867Z,13.30
2017-08-21T19:59:19.308Z,13.20
2017-08-21T20:01:46.748Z,13.20
2017-08-21T20:04:14.195Z,13.20
2017-08-21T20:06:41.632Z,13.20
2017-08-21T20:09:09.082Z,13.10
2017-08-21T20:11:36.519Z,13.10
2017-08-21T20:14:03.983Z,13.00
2017-08-21T20:16:31.423Z,12.90
2017-08-21T20:18:59.633Z,13.00
2017-08-21T20:21:27.078Z,12.90
2017-08-21T20:23:54.517Z,12.90
2017-08-21T20:26:27.131Z,12.80
2017-08-21T20:29:13.721Z,12.70
2017-08-21T20:31:44.432Z,12.60
2017-08-21T20:34:14.377Z,12.60
2017-08-21T20:42:19.971Z,12.30
2017-08-21T20:44:47.547Z,12.20
2017-08-21T20:47:24.898Z,12.20
2017-08-21T20:50:00.316Z,12.10
2017-08-21T20:52:46.176Z,12.10
2017-08-21T20:55:26.105Z,12.00
2017-08-21T20:58:07.377Z,12.00
2017-08-21T21:03:35.579Z,12.00
2017-08-21T21:09:11.205Z,12.00
2017-08-21T21:14:36.432Z,11.90
2017-08-21T21:17:05.116Z,11.90
2017-08-21T21:22:33.461Z,11.80
2017-08-21T21:25:00.887Z,11.80
2017-08-21T21:27:28.339Z,11.70
2017-08-21T21:29:55.767Z,11.70
2017-08-21T21:32:23.211Z,11.60
2017-08-21T21:34:50.651Z,11.70
2017-08-21T22:12:24.435Z,11.30
2017-08-21T22:20:57.464Z,11.20
2017-08-21T22:23:25.948Z,11.10
2017-08-21T22:29:14.312Z,11.00
2017-08-21T22:34:43.642Z,10.90
2017-08-21T22:37:28.505Z,10.90
2017-08-21T22:45:20.540Z,10.80
2017-08-21T22:50:48.970Z,10.70
2017-08-21T22:53:18.020Z,10.70
2017-08-21T22:55:45.611Z,10.70
2017-08-21T22:58:19.380Z,10.60
2017-08-21T23:00:47.075Z,10.60
2017-08-21T23:03:15.805Z,10.60
2017-08-21T23:05:44.621Z,10.60
2017-08-21T23:08:24.263Z,10.60
2017-08-21T23:10:51.985Z,10.60
2017-08-21T23:13:19.859Z,10.60
2017-08-21T23:15:47.612Z,10.60
2017-08-21T23:18:15.065Z,10.50
2017-08-21T23:23:55.466Z,10.50
2017-08-21T23:32:11.613Z,10.40
